Warren, Minnesota
Current Conditions -  °F | °C
As of 4:34 AM on Thursday 23 Oct 2014 (Local Time) from KCKN Reporting Station
Overcast Overcast  
Wind Chill: 43°   Ceiling: 8000
Heat Index: 46°   Visibility: 10mi
Dew Point: 46°   Wind: 7mph
Humidity: 100%   Direction: 190°S
Pressure: 29.86"   Gusts: NA
Location:  48.2°N, 96.77°W
Report Text: KCKN 230934Z AUTO 19006KT 10SM OVC080 08/08 A2986 RMK AO2
Loading
Personal Weather Stations






























Interactive Weather Map
Tropical Storm Tracking
New forecast layout! Learn more

10-Day Weather Forecast

Advertisements
Track Severe Weather on mobile